createdAt,value
2024-01-10T00:00:42.271Z,62.5
2024-01-10T00:01:58.519Z,61.8
2024-01-10T00:03:14.260Z,61.6
2024-01-10T00:04:30.326Z,61.3
2024-01-10T00:05:46.307Z,60.8
2024-01-10T00:07:02.292Z,60.3
2024-01-10T00:08:18.320Z,60.3
2024-01-10T00:09:34.902Z,60.2
2024-01-10T00:10:51.312Z,60.3
2024-01-10T00:12:07.348Z,60.5
2024-01-10T00:13:23.213Z,60.9
2024-01-10T00:14:39.527Z,61.7
2024-01-10T00:15:55.257Z,62.4
2024-01-10T00:17:11.283Z,63.1
2024-01-10T00:18:27.433Z,63.8
2024-01-10T00:19:43.356Z,64.2
2024-01-10T00:20:59.350Z,64.2
2024-01-10T00:22:15.315Z,64.2
2024-01-10T00:23:31.278Z,63.8
2024-01-10T00:24:47.334Z,63.1
2024-01-10T00:26:03.382Z,62.6
2024-01-10T00:27:19.336Z,62.2
2024-01-10T00:28:35.329Z,61.6
2024-01-10T00:29:51.297Z,61.4
2024-01-10T00:31:07.310Z,61
2024-01-10T00:32:23.354Z,60.6
2024-01-10T00:33:39.535Z,60.4
2024-01-10T00:34:55.464Z,60.1
2024-01-10T00:36:11.305Z,59.9
2024-01-10T00:37:27.282Z,59.8
2024-01-10T00:38:43.322Z,59.7
2024-01-10T00:39:59.334Z,59.5
2024-01-10T00:41:15.405Z,59.3
2024-01-10T00:42:31.296Z,59.3
2024-01-10T00:43:47.323Z,59.9
2024-01-10T00:45:03.401Z,60.3
2024-01-10T00:46:19.293Z,60.9
2024-01-10T00:47:35.315Z,61.4
2024-01-10T00:48:51.379Z,61.6
2024-01-10T00:50:07.606Z,61.5
2024-01-10T00:51:23.286Z,61.2
2024-01-10T00:52:39.333Z,60.6
2024-01-10T00:53:55.392Z,60.1
2024-01-10T00:55:11.753Z,60.1
2024-01-10T00:56:28.383Z,59.8
2024-01-10T00:57:44.303Z,59.4
2024-01-10T00:59:00.409Z,59.2
2024-01-10T01:00:16.291Z,58.7
2024-01-10T01:01:32.415Z,58.7
2024-01-10T01:02:48.364Z,58.6
2024-01-10T01:04:05.446Z,58.6
2024-01-10T01:05:21.541Z,58.7
2024-01-10T01:06:37.312Z,58.4
2024-01-10T01:07:53.395Z,58.2
2024-01-10T01:09:09.399Z,58.6
2024-01-10T01:10:25.274Z,59.4
2024-01-10T01:11:41.346Z,60.6
2024-01-10T01:12:57.368Z,61.5
2024-01-10T01:14:13.840Z,62.7
2024-01-10T01:15:30.345Z,63.7
2024-01-10T01:16:46.370Z,64.6
2024-01-10T01:18:02.416Z,65
2024-01-10T01:19:18.464Z,65.2
2024-01-10T01:20:34.355Z,65.4
2024-01-10T01:21:50.312Z,65.5
2024-01-10T01:23:06.449Z,65.6
2024-01-10T01:24:22.592Z,65.4
2024-01-10T01:25:39.421Z,64.8
2024-01-10T01:26:55.614Z,64.3
2024-01-10T01:28:12.322Z,63.6
2024-01-10T01:29:28.516Z,63.2
2024-01-10T01:30:44.770Z,62.5
2024-01-10T01:32:01.365Z,61.8
2024-01-10T01:33:17.509Z,61.5
2024-01-10T01:34:33.434Z,61.5
2024-01-10T01:35:49.353Z,61.9
2024-01-10T01:37:05.436Z,61.6
2024-01-10T01:38:21.334Z,61.4
2024-01-10T01:39:37.338Z,61.7
2024-01-10T01:40:53.386Z,61.5
2024-01-10T01:42:09.474Z,61.6
2024-01-10T01:43:25.381Z,61.7
2024-01-10T01:44:41.418Z,61.6
2024-01-10T01:45:57.456Z,61.4
2024-01-10T01:47:13.541Z,61.3
2024-01-10T01:48:29.549Z,61
2024-01-10T01:49:45.562Z,60.6
2024-01-10T01:51:01.359Z,60.5
2024-01-10T01:52:17.434Z,60.5
2024-01-10T01:53:34.220Z,60.4
2024-01-10T01:54:50.563Z,60.1
2024-01-10T01:56:07.559Z,60.1
2024-01-10T01:57:23.479Z,60.1
2024-01-10T01:58:39.576Z,60.2
2024-01-10T01:59:55.547Z,60.4
2024-01-10T02:01:11.602Z,60.6
2024-01-10T02:02:27.594Z,60.8
2024-01-10T02:03:43.612Z,61.2
2024-01-10T02:04:59.651Z,61.6
2024-01-10T02:06:16.661Z,62
2024-01-10T02:07:33.589Z,62.6
2024-01-10T02:08:49.523Z,63.1
2024-01-10T02:10:05.999Z,63.5
2024-01-10T02:11:22.669Z,63.9
2024-01-10T02:12:39.595Z,64.4
2024-01-10T02:13:55.777Z,64.9
2024-01-10T02:15:11.642Z,65
2024-01-10T02:16:28.644Z,64.7
2024-01-10T02:17:44.648Z,64.5
2024-01-10T02:19:01.586Z,64
2024-01-10T02:20:18.835Z,63.5
2024-01-10T02:21:34.669Z,63.2
2024-01-10T02:22:51.782Z,63.1
2024-01-10T02:24:07.577Z,63.8
2024-01-10T02:25:24.546Z,64.1
2024-01-10T02:26:41.096Z,64.7
2024-01-10T02:27:57.512Z,64.4
2024-01-10T02:29:13.685Z,63.9
2024-01-10T02:30:29.600Z,64
2024-01-10T02:31:45.676Z,64.4
2024-01-10T02:33:01.826Z,65.2
2024-01-10T02:34:17.646Z,66
2024-01-10T02:35:33.640Z,67
2024-01-10T02:36:49.596Z,67.5
2024-01-10T02:38:05.566Z,68.4
2024-01-10T02:39:21.667Z,68.7
2024-01-10T02:40:37.626Z,69.7
2024-01-10T02:41:53.581Z,70
2024-01-10T02:43:09.680Z,70.1
2024-01-10T02:44:25.675Z,69.7
2024-01-10T02:45:41.656Z,69.5
2024-01-10T02:46:57.707Z,69.5
2024-01-10T02:48:13.675Z,69.3
2024-01-10T02:49:30.656Z,69.1
2024-01-10T02:50:47.976Z,68.7
2024-01-10T02:52:05.167Z,67.8
2024-01-10T02:53:21.646Z,67.8
2024-01-10T02:54:38.706Z,68.5
2024-01-10T02:55:54.655Z,68.6
2024-01-10T02:57:11.649Z,68.7
2024-01-10T02:58:28.611Z,68.8
2024-01-10T02:59:45.705Z,68.7
2024-01-10T03:01:02.711Z,68.5
2024-01-10T03:02:18.694Z,68.3
2024-01-10T03:03:34.609Z,68.3
2024-01-10T03:04:50.703Z,68.2
2024-01-10T03:06:08.022Z,68.1
2024-01-10T03:07:24.614Z,68.1
2024-01-10T03:08:40.638Z,67.8
2024-01-10T03:09:57.629Z,67.2
2024-01-10T03:11:14.626Z,66.9
2024-01-10T03:12:31.679Z,66.7
2024-01-10T03:13:48.636Z,66.8
2024-01-10T03:15:05.615Z,66.8
2024-01-10T03:16:21.616Z,67.1
2024-01-10T03:17:37.780Z,67
2024-01-10T03:18:54.981Z,66.9
2024-01-10T03:20:11.506Z,66.6
2024-01-10T03:21:27.522Z,66.2
2024-01-10T03:22:43.571Z,65.9
2024-01-10T03:23:59.515Z,65.1
2024-01-10T03:25:15.522Z,64.7
2024-01-10T03:26:32.096Z,64.8
2024-01-10T03:27:48.982Z,65.1
2024-01-10T03:29:05.482Z,65.6
2024-01-10T03:30:21.532Z,65.9
2024-01-10T03:31:37.489Z,66.1
2024-01-10T03:32:53.726Z,66.9
2024-01-10T03:34:09.524Z,66.9
2024-01-10T03:35:25.635Z,67
2024-01-10T03:36:41.516Z,67.4
2024-01-10T03:37:57.597Z,68.1
2024-01-10T03:39:13.479Z,68.5
2024-01-10T03:40:29.493Z,69.1
2024-01-10T03:41:45.478Z,69.3
2024-01-10T03:43:01.546Z,69
2024-01-10T03:44:17.594Z,68.8
2024-01-10T03:45:33.548Z,68.5
2024-01-10T03:46:49.487Z,68.2
2024-01-10T03:48:05.584Z,67.7
2024-01-10T03:49:21.878Z,67.2
2024-01-10T03:50:37.544Z,66.9
2024-01-10T03:51:53.517Z,67
2024-01-10T03:53:09.624Z,67.3
2024-01-10T03:54:25.515Z,67.8
2024-01-10T03:55:41.630Z,67.8
2024-01-10T03:56:57.478Z,67.9
2024-01-10T03:58:13.557Z,67.9
2024-01-10T03:59:29.516Z,67.9
2024-01-10T04:00:45.527Z,68.3
2024-01-10T04:02:01.677Z,68.6
2024-01-10T04:03:17.622Z,68.4
2024-01-10T04:04:33.540Z,68.2
2024-01-10T04:05:49.627Z,67.9
2024-01-10T04:07:05.488Z,67.8
2024-01-10T04:08:21.596Z,67.6
2024-01-10T04:09:37.515Z,68.2
2024-01-10T04:10:53.533Z,68.2
2024-01-10T04:12:09.531Z,68.1
2024-01-10T04:13:25.510Z,67.9
2024-01-10T04:14:41.588Z,67.6
2024-01-10T04:15:57.612Z,67
2024-01-10T04:17:13.564Z,66.4
2024-01-10T04:18:30.225Z,65.9
2024-01-10T04:19:46.632Z,65.6
2024-01-10T04:21:02.710Z,65.6
2024-01-10T04:22:18.489Z,65.8
2024-01-10T04:23:34.492Z,65.8
2024-01-10T04:24:50.540Z,65.8
2024-01-10T04:26:06.605Z,65.8
2024-01-10T04:27:22.601Z,65.8
2024-01-10T04:28:38.544Z,65.8
2024-01-10T04:29:54.558Z,65.7
2024-01-10T04:31:10.639Z,65.3
2024-01-10T04:32:26.714Z,65.1
2024-01-10T04:33:42.649Z,65.2
2024-01-10T04:34:58.614Z,65.7
2024-01-10T04:36:14.548Z,65.9
2024-01-10T04:37:30.536Z,65.7
2024-01-10T04:38:46.567Z,65.3
2024-01-10T04:40:02.635Z,65.1
2024-01-10T04:41:18.663Z,64.7
2024-01-10T04:42:34.608Z,64.5
2024-01-10T04:43:50.588Z,64.4
2024-01-10T04:45:06.578Z,64.4
2024-01-10T04:46:22.972Z,64.6
2024-01-10T04:47:39.971Z,65.7
2024-01-10T04:48:56.731Z,66
2024-01-10T04:50:14.024Z,66.8
2024-01-10T04:51:28.542Z,67.3
2024-01-10T04:52:44.629Z,67.5
2024-01-10T04:54:00.581Z,67.9
2024-01-10T04:55:16.596Z,68.4
2024-01-10T04:56:32.678Z,68.5
2024-01-10T04:57:48.693Z,68.1
2024-01-10T04:59:04.614Z,67.5
2024-01-10T05:00:20.600Z,66.7
2024-01-10T05:01:36.642Z,66.1
2024-01-10T05:02:54.490Z,66
2024-01-10T05:04:08.633Z,66.1
2024-01-10T05:05:24.742Z,66.2
2024-01-10T05:06:40.603Z,66.4
2024-01-10T05:07:56.624Z,65.6
2024-01-10T05:09:12.618Z,64.8
2024-01-10T05:10:28.591Z,64.3
2024-01-10T05:11:45.118Z,63.6
2024-01-10T05:13:00.608Z,63.3
2024-01-10T05:14:16.616Z,62.8
2024-01-10T05:15:32.645Z,62.7
2024-01-10T05:16:48.626Z,62
2024-01-10T05:18:04.697Z,61.6
2024-01-10T05:19:20.611Z,61.7
2024-01-10T05:20:36.691Z,61.8
2024-01-10T05:21:52.629Z,61.6
2024-01-10T05:23:08.642Z,61.5
2024-01-10T05:24:24.575Z,61.7
2024-01-10T05:25:40.784Z,61.8
2024-01-10T05:26:56.609Z,61.8
2024-01-10T05:28:12.626Z,62.2
2024-01-10T05:29:28.733Z,62.5
2024-01-10T05:30:44.680Z,62.8
2024-01-10T05:32:00.780Z,63.2
2024-01-10T05:33:16.630Z,63.2
2024-01-10T05:34:32.623Z,63.4
2024-01-10T05:35:48.726Z,63.6
2024-01-10T05:37:05.020Z,63.8
2024-01-10T05:38:21.704Z,64.2
2024-01-10T05:39:37.596Z,65
2024-01-10T05:40:54.173Z,65.4
2024-01-10T05:42:10.643Z,65.7
2024-01-10T05:43:27.601Z,65.9
2024-01-10T05:44:43.690Z,65.9
2024-01-10T05:45:59.716Z,65.7
2024-01-10T05:47:15.693Z,65.8
2024-01-10T05:48:31.721Z,65.2
2024-01-10T05:49:47.798Z,65
2024-01-10T05:51:04.939Z,65.2
2024-01-10T05:52:22.120Z,65.6
2024-01-10T05:53:38.853Z,65.3
2024-01-10T05:54:55.029Z,64.8
2024-01-10T05:56:12.897Z,64.8
2024-01-10T05:57:29.733Z,65.4
2024-01-10T05:58:47.313Z,66.3
2024-01-10T06:00:03.971Z,67
2024-01-10T06:01:20.740Z,67.8
2024-01-10T06:02:37.073Z,68.2
2024-01-10T06:03:53.753Z,68.4
2024-01-10T06:05:09.669Z,68.4
2024-01-10T06:06:25.668Z,68.2
2024-01-10T06:07:41.687Z,68
2024-01-10T06:08:57.671Z,67.7
2024-01-10T06:10:13.746Z,67.3
2024-01-10T06:11:29.698Z,66.9
2024-01-10T06:12:45.672Z,66.4
2024-01-10T06:14:01.777Z,65.8
2024-01-10T06:15:17.659Z,65
2024-01-10T06:16:33.670Z,64.5
2024-01-10T06:17:49.902Z,63.9
2024-01-10T06:19:05.936Z,63.7
2024-01-10T06:20:21.752Z,63.1
2024-01-10T06:21:37.638Z,62.7
2024-01-10T06:22:53.682Z,62.8
2024-01-10T06:24:09.682Z,62.8
2024-01-10T06:25:25.692Z,62.8
2024-01-10T06:26:41.601Z,62.8
2024-01-10T06:27:57.693Z,62.7
2024-01-10T06:29:14.518Z,62.8
2024-01-10T06:30:30.729Z,63.1
2024-01-10T06:31:46.762Z,63.2
2024-01-10T06:33:04.210Z,63.4
2024-01-10T06:34:21.304Z,63.4
2024-01-10T06:35:37.721Z,63.6
2024-01-10T06:36:53.706Z,63.8
2024-01-10T06:38:09.778Z,63.7
2024-01-10T06:39:25.703Z,63.4
2024-01-10T06:40:41.684Z,63.1
2024-01-10T06:41:57.646Z,63.7
2024-01-10T06:43:14.229Z,63.7
2024-01-10T06:44:31.272Z,63.7
2024-01-10T06:45:47.704Z,63.7
2024-01-10T06:47:03.777Z,63.9
2024-01-10T06:48:19.721Z,64.2
2024-01-10T06:49:35.788Z,64.1
2024-01-10T06:50:51.748Z,64
2024-01-10T06:52:07.664Z,63.6
2024-01-10T06:53:23.763Z,63.8
2024-01-10T06:54:39.729Z,63.8
2024-01-10T06:55:55.876Z,63.7
2024-01-10T06:57:11.747Z,63.5
2024-01-10T06:58:28.288Z,63.7
2024-01-10T06:59:45.349Z,64.6
2024-01-10T07:01:01.830Z,64.3
2024-01-10T07:02:17.777Z,65.1
2024-01-10T07:03:33.704Z,65.3
2024-01-10T07:04:49.844Z,65.9
2024-01-10T07:06:06.006Z,67.2
2024-01-10T07:07:21.714Z,68.3
2024-01-10T07:08:37.730Z,69.2
2024-01-10T07:09:53.925Z,69.2
2024-01-10T07:11:09.766Z,68.9
2024-01-10T07:12:25.716Z,68.5
2024-01-10T07:13:41.704Z,68.1
2024-01-10T07:14:57.755Z,67.3
2024-01-10T07:16:13.872Z,66.8
2024-01-10T07:17:30.061Z,65.9
2024-01-10T07:18:45.879Z,65.1
2024-01-10T07:20:01.852Z,65.2
2024-01-10T07:21:17.803Z,65.7
2024-01-10T07:22:33.772Z,66.3
2024-01-10T07:23:49.742Z,66.7
2024-01-10T07:25:06.638Z,67
2024-01-10T07:26:22.202Z,67.6
2024-01-10T07:27:38.763Z,67.6
2024-01-10T07:28:54.833Z,67.8
2024-01-10T07:30:10.889Z,67.9
2024-01-10T07:31:26.738Z,67
2024-01-10T07:32:42.984Z,66.5
2024-01-10T07:33:59.348Z,65.8
2024-01-10T07:35:15.879Z,65.4
2024-01-10T07:36:31.796Z,65.3
2024-01-10T07:37:47.881Z,64.9
2024-01-10T07:39:04.419Z,64.2
2024-01-10T07:40:19.752Z,62.8
2024-01-10T07:41:35.807Z,62
2024-01-10T07:42:51.841Z,61
2024-01-10T07:44:07.821Z,60.7
2024-01-10T07:45:23.767Z,60.8
2024-01-10T07:46:39.863Z,60.9
2024-01-10T07:47:55.851Z,60.7
2024-01-10T07:49:11.843Z,60.7
2024-01-10T07:50:27.828Z,60.2
2024-01-10T07:51:43.817Z,59.8
2024-01-10T07:52:59.830Z,59.6
2024-01-10T07:54:15.742Z,59.9
2024-01-10T07:55:31.802Z,59.4
2024-01-10T07:56:47.980Z,59.2
2024-01-10T07:58:03.915Z,59.5
2024-01-10T07:59:19.842Z,59.1
2024-01-10T08:00:35.824Z,59
2024-01-10T08:01:51.873Z,57.8
2024-01-10T08:03:07.861Z,56.8
2024-01-10T08:04:23.799Z,55.7
2024-01-10T08:05:39.838Z,54.9
2024-01-10T08:06:55.931Z,53.7
2024-01-10T08:08:11.877Z,53
2024-01-10T08:09:27.815Z,52.8
2024-01-10T08:10:43.817Z,52
2024-01-10T08:11:59.809Z,52.3
2024-01-10T08:13:15.787Z,52.2
2024-01-10T08:14:31.805Z,52.8
2024-01-10T08:15:47.821Z,52.1
2024-01-10T08:17:03.792Z,51.8
2024-01-10T08:18:19.911Z,51.6
2024-01-10T08:19:35.853Z,51.6
2024-01-10T08:20:51.836Z,51.8
2024-01-10T08:22:07.863Z,52.2
2024-01-10T08:23:23.880Z,51.7
2024-01-10T08:24:39.855Z,50.7
2024-01-10T08:25:55.843Z,50.5
2024-01-10T08:27:11.868Z,50.3
2024-01-10T08:28:28.258Z,50.5
2024-01-10T08:29:45.221Z,50.5
2024-01-10T08:31:04.031Z,50
2024-01-10T08:32:17.840Z,49.4
2024-01-10T08:33:34.034Z,49.4
2024-01-10T08:34:49.925Z,49.9
2024-01-10T08:36:05.838Z,50.3
2024-01-10T08:37:21.839Z,49.3
2024-01-10T08:38:37.911Z,49.4
2024-01-10T08:39:53.872Z,48.8
2024-01-10T08:41:09.850Z,48.1
2024-01-10T08:42:25.841Z,47.8
2024-01-10T08:43:41.886Z,48.4
2024-01-10T08:44:57.825Z,49.1
2024-01-10T08:46:13.937Z,50
2024-01-10T08:47:29.958Z,50.4
2024-01-10T08:48:46.194Z,50.9
2024-01-10T08:50:01.902Z,51.7
2024-01-10T08:51:17.846Z,52.8
2024-01-10T08:52:33.871Z,52.6
2024-01-10T08:53:49.825Z,52.7
2024-01-10T08:55:05.928Z,52.7
2024-01-10T08:56:21.912Z,52.8
2024-01-10T08:57:37.894Z,52.8
2024-01-10T08:58:53.948Z,52.8
2024-01-10T09:00:09.866Z,51.3
2024-01-10T09:01:25.971Z,49.9
2024-01-10T09:02:41.887Z,50.1
2024-01-10T09:03:57.858Z,50.1
2024-01-10T09:05:14.025Z,49.5
2024-01-10T09:06:29.907Z,49
2024-01-10T09:07:45.872Z,48.6
2024-01-10T09:09:01.893Z,48.6
2024-01-10T09:10:17.869Z,49.2
2024-01-10T09:11:35.918Z,50
2024-01-10T09:12:49.858Z,49.7
2024-01-10T09:14:06.027Z,49.9
2024-01-10T09:15:21.909Z,50.4
2024-01-10T09:16:37.927Z,50
2024-01-10T09:17:54.082Z,49.8
2024-01-10T09:19:11.535Z,48.5
2024-01-10T09:20:26.316Z,47.1
2024-01-10T09:21:42.853Z,46.7
2024-01-10T09:22:58.900Z,47.4
2024-01-10T09:24:21.507Z,47
2024-01-10T09:25:30.830Z,47.1
2024-01-10T09:26:46.921Z,47.6
2024-01-10T09:28:02.895Z,47.7
2024-01-10T09:29:18.930Z,48.4
2024-01-10T09:30:35.009Z,49.3
2024-01-10T09:31:51.010Z,49.3
2024-01-10T09:33:07.249Z,48.4
2024-01-10T09:34:24.100Z,48.7
2024-01-10T09:35:39.962Z,48.5
2024-01-10T09:36:55.951Z,47.6
2024-01-10T09:38:12.250Z,47.3
2024-01-10T09:39:28.872Z,47.1
2024-01-10T09:40:45.048Z,45.8
2024-01-10T09:42:00.934Z,45
2024-01-10T09:43:17.188Z,44.5
2024-01-10T09:44:33.927Z,44.2
2024-01-10T09:45:49.995Z,45.1
2024-01-10T09:47:05.991Z,46.2
2024-01-10T09:48:22.048Z,47.3
2024-01-10T09:49:38.310Z,48
2024-01-10T09:50:54.873Z,48.3
2024-01-10T09:52:10.898Z,48.5
2024-01-10T09:53:27.070Z,48.2
2024-01-10T09:54:42.967Z,48.1
2024-01-10T09:55:58.959Z,48.9
2024-01-10T09:57:14.914Z,48.8
2024-01-10T09:58:30.967Z,48.7
2024-01-10T09:59:46.933Z,48.7
2024-01-10T10:01:02.921Z,48.5
2024-01-10T10:02:18.984Z,48.3
2024-01-10T10:03:35.153Z,47.2
2024-01-10T10:04:57.292Z,46.2
2024-01-10T10:06:06.927Z,45.2
2024-01-10T10:07:23.040Z,44
2024-01-10T10:08:39.037Z,42.9
2024-01-10T10:09:54.895Z,42
2024-01-10T10:11:10.974Z,42
2024-01-10T10:12:27.005Z,42.1
2024-01-10T10:13:43.111Z,41.7
2024-01-10T10:14:58.941Z,40.5
2024-01-10T10:16:14.925Z,38.8
2024-01-10T10:17:31.069Z,37.9
2024-01-10T10:18:49.684Z,38.6
2024-01-10T10:20:03.030Z,39.1
2024-01-10T10:21:19.217Z,39.8
2024-01-10T10:22:35.029Z,39.6
2024-01-10T10:23:51.083Z,40.4
2024-01-10T10:25:07.014Z,41.3
2024-01-10T10:26:23.157Z,41.1
2024-01-10T10:27:38.984Z,40.9
2024-01-10T10:28:54.992Z,40.6
2024-01-10T10:30:10.984Z,39
2024-01-10T10:31:26.959Z,39
2024-01-10T10:32:43.037Z,39.3
2024-01-10T10:33:59.046Z,38.7
2024-01-10T10:35:24.298Z,38.5
2024-01-10T10:36:31.500Z,39.3
2024-01-10T10:37:48.017Z,39.6
2024-01-10T10:39:04.018Z,40.4
2024-01-10T10:40:19.976Z,40.4
2024-01-10T10:41:36.424Z,39.6
2024-01-10T10:42:53.014Z,38
2024-01-10T10:44:09.079Z,37.5
2024-01-10T10:45:25.033Z,37.6
2024-01-10T10:46:41.067Z,37.2
2024-01-10T10:47:57.104Z,37
2024-01-10T10:49:13.220Z,38.2
2024-01-10T10:50:29.003Z,40.2
2024-01-10T10:51:44.985Z,42.1
2024-01-10T10:53:01.018Z,43.1
2024-01-10T10:54:17.886Z,43.2
2024-01-10T10:55:33.991Z,43.8
2024-01-10T10:56:50.236Z,42.3
2024-01-10T10:58:10.897Z,41.3
2024-01-10T10:59:23.213Z,41.1
2024-01-10T11:00:39.032Z,41
2024-01-10T11:01:55.049Z,39.7
2024-01-10T11:03:11.060Z,38.9
2024-01-10T11:04:27.115Z,39.3
2024-01-10T11:05:43.266Z,39.7
2024-01-10T11:06:59.242Z,39.8
2024-01-10T11:08:15.338Z,39.9
2024-01-10T11:09:32.149Z,40
2024-01-10T11:10:48.087Z,39.3
2024-01-10T11:12:03.988Z,37.8
2024-01-10T11:13:20.120Z,37.9
2024-01-10T11:14:36.172Z,37.1
2024-01-10T11:15:52.023Z,36.2
2024-01-10T11:17:08.051Z,36.2
2024-01-10T11:18:24.061Z,35.7
2024-01-10T11:19:40.141Z,36.7
2024-01-10T11:20:56.026Z,37.6
2024-01-10T11:22:12.080Z,38.4
2024-01-10T11:23:28.034Z,39.5
2024-01-10T11:24:44.152Z,39.1
2024-01-10T11:26:00.162Z,38.8
2024-01-10T11:27:16.072Z,39
2024-01-10T11:28:32.077Z,39.1
2024-01-10T11:29:48.205Z,39.1
2024-01-10T11:31:04.839Z,38.8
2024-01-10T11:32:21.152Z,37.9
2024-01-10T11:33:39.727Z,38
2024-01-10T11:34:56.195Z,38.5
2024-01-10T11:36:12.449Z,38.2
2024-01-10T11:37:28.104Z,37.7
2024-01-10T11:38:44.126Z,38.2
2024-01-10T11:40:00.139Z,38.6
2024-01-10T11:41:16.047Z,38.7
2024-01-10T11:42:32.167Z,39
2024-01-10T11:43:48.073Z,39
2024-01-10T11:45:04.007Z,39.6
2024-01-10T11:46:21.896Z,39.7
2024-01-10T11:47:36.214Z,39.7
2024-01-10T11:48:52.145Z,40.6
2024-01-10T11:50:08.160Z,41.1
2024-01-10T11:51:24.106Z,41.3
2024-01-10T11:52:40.073Z,41.1
2024-01-10T11:53:56.060Z,41.2
2024-01-10T11:55:12.115Z,41.3
2024-01-10T11:56:33.453Z,41.3
2024-01-10T11:57:44.111Z,41.1
2024-01-10T11:59:00.101Z,40.8
2024-01-10T12:00:16.133Z,41.2
2024-01-10T12:01:32.070Z,41.7
2024-01-10T12:02:48.587Z,42.1
2024-01-10T12:04:11.115Z,41.8
2024-01-10T12:05:21.234Z,41.5
2024-01-10T12:06:37.306Z,41.6
2024-01-10T12:07:53.229Z,42.9
2024-01-10T12:09:09.060Z,42.7
2024-01-10T12:10:25.124Z,43.4
2024-01-10T12:11:41.061Z,43.8
2024-01-10T12:12:57.176Z,44.4
2024-01-10T12:14:13.134Z,44.2
2024-01-10T12:15:29.086Z,43.9
2024-01-10T12:16:45.193Z,44
2024-01-10T12:18:01.146Z,43.4
2024-01-10T12:19:17.270Z,43.3
2024-01-10T12:20:33.372Z,43.7
2024-01-10T12:21:50.213Z,44.1
2024-01-10T12:23:06.186Z,44.4
2024-01-10T12:24:22.133Z,44.8
2024-01-10T12:25:38.094Z,45.5
2024-01-10T12:26:55.172Z,45.4
2024-01-10T12:28:11.136Z,44.6
2024-01-10T12:29:27.145Z,43.6
2024-01-10T12:30:43.125Z,43.2
2024-01-10T12:31:59.104Z,43.6
2024-01-10T12:33:15.224Z,44
2024-01-10T12:34:31.113Z,43.9
2024-01-10T12:35:47.321Z,44.7
2024-01-10T12:37:04.199Z,45.6
2024-01-10T12:38:20.239Z,45.9
2024-01-10T12:39:36.147Z,46.5
2024-01-10T12:40:52.266Z,46.9
2024-01-10T12:42:08.117Z,46.6
2024-01-10T12:43:24.289Z,46.4
2024-01-10T12:44:40.124Z,46.8
2024-01-10T12:45:56.217Z,47
2024-01-10T12:47:12.216Z,47.6
2024-01-10T12:48:28.195Z,47.5
2024-01-10T12:49:44.114Z,47
2024-01-10T12:51:00.187Z,46.2
2024-01-10T12:52:17.931Z,45.6
2024-01-10T12:53:32.190Z,44.6
2024-01-10T12:54:48.154Z,44.1
2024-01-10T12:56:04.346Z,44.1
2024-01-10T12:57:20.443Z,44.9
2024-01-10T12:58:36.190Z,45
2024-01-10T12:59:52.155Z,45.2
2024-01-10T13:01:08.160Z,45.6
2024-01-10T13:02:24.217Z,46.1
2024-01-10T13:03:40.149Z,46.2
2024-01-10T13:04:56.161Z,45.8
2024-01-10T13:06:12.260Z,45.4
2024-01-10T13:07:28.188Z,44.7
2024-01-10T13:08:44.288Z,44.3
2024-01-10T13:10:00.242Z,44.2
2024-01-10T13:11:16.312Z,44.3
2024-01-10T13:12:32.199Z,44.3
2024-01-10T13:13:48.195Z,43.7
2024-01-10T13:15:04.190Z,41.8
2024-01-10T13:16:20.154Z,40.8
2024-01-10T13:17:36.273Z,40.5
2024-01-10T13:18:52.526Z,40.7
2024-01-10T13:20:09.344Z,40.6
2024-01-10T13:21:25.188Z,40.5
2024-01-10T13:22:41.198Z,40.5
2024-01-10T13:23:57.177Z,40.4
2024-01-10T13:25:13.223Z,40.5
2024-01-10T13:26:29.476Z,40.2
2024-01-10T13:27:45.151Z,40.6
2024-01-10T13:29:01.270Z,41.4
2024-01-10T13:30:17.302Z,41.7
2024-01-10T13:31:33.246Z,42
2024-01-10T13:32:49.185Z,42.1
2024-01-10T13:34:05.281Z,42.6
2024-01-10T13:35:21.365Z,43.9
2024-01-10T13:36:37.217Z,45.1
2024-01-10T13:37:53.173Z,45.9
2024-01-10T13:39:09.210Z,46.8
2024-01-10T13:40:25.306Z,47.4
2024-01-10T13:41:41.225Z,48
2024-01-10T13:42:57.205Z,48.6
2024-01-10T13:44:13.299Z,48.2
2024-01-10T13:45:44.443Z,47.7
2024-01-10T13:47:00.243Z,46.8
2024-01-10T13:48:16.246Z,45.4
2024-01-10T13:49:32.282Z,44.2
2024-01-10T13:50:48.215Z,43.8
2024-01-10T13:52:04.227Z,44
2024-01-10T13:53:20.554Z,44
2024-01-10T13:54:37.255Z,44.1
2024-01-10T13:55:53.241Z,44.2
2024-01-10T13:57:09.369Z,44.1
2024-01-10T13:58:25.526Z,43.5
2024-01-10T13:59:41.226Z,43.3
2024-01-10T14:00:57.339Z,43.5
2024-01-10T14:02:13.366Z,44.3
2024-01-10T14:03:32.244Z,44.5
2024-01-10T14:04:45.310Z,45.2
2024-01-10T14:06:01.254Z,45.7
2024-01-10T14:07:17.343Z,45.8
2024-01-10T14:08:33.217Z,46
2024-01-10T14:09:50.127Z,45.5
2024-01-10T14:11:06.239Z,45.3
2024-01-10T14:12:22.361Z,45.7
2024-01-10T14:13:38.308Z,46.4
2024-01-10T14:14:54.302Z,46.3
2024-01-10T14:16:10.329Z,46
2024-01-10T14:17:26.347Z,45.4
2024-01-10T14:18:42.295Z,45.7
2024-01-10T14:19:58.269Z,46
2024-01-10T14:21:14.290Z,46.4
2024-01-10T14:22:31.705Z,46.7
2024-01-10T14:23:46.340Z,46.8
2024-01-10T14:25:02.948Z,47
2024-01-10T14:26:18.317Z,46.9
2024-01-10T14:27:34.292Z,46.7
2024-01-10T14:28:50.259Z,47
2024-01-10T14:30:06.461Z,47.3
2024-01-10T14:31:29.167Z,47.5
2024-01-10T14:32:39.731Z,47.6
2024-01-10T14:33:55.375Z,47.5
2024-01-10T14:35:11.990Z,47.3
2024-01-10T14:36:27.395Z,47.6
2024-01-10T14:37:43.305Z,48.1
2024-01-10T14:38:59.306Z,48.7
2024-01-10T14:40:15.286Z,49.3
2024-01-10T14:41:31.252Z,49.9
2024-01-10T14:42:47.293Z,50.4
2024-01-10T14:44:03.308Z,51.1
2024-01-10T14:45:19.263Z,51.8
2024-01-10T14:46:35.258Z,52.3
2024-01-10T14:47:51.512Z,52.7
2024-01-10T14:49:07.388Z,52.8
2024-01-10T14:50:23.373Z,52.4
2024-01-10T14:51:39.256Z,51.9
2024-01-10T14:52:55.459Z,51.5
2024-01-10T14:54:11.407Z,51.1
2024-01-10T14:55:27.300Z,51.2
2024-01-10T14:56:43.826Z,51
2024-01-10T14:57:59.312Z,50.9
2024-01-10T14:59:15.403Z,50.5
2024-01-10T15:00:31.399Z,50.5
2024-01-10T15:01:47.385Z,50.7
2024-01-10T15:03:06.613Z,51
2024-01-10T15:04:20.060Z,50.5
2024-01-10T15:05:35.852Z,50.1
2024-01-10T15:06:52.472Z,49.9
2024-01-10T15:08:08.351Z,49.9
2024-01-10T15:09:24.388Z,49.7
2024-01-10T15:10:40.296Z,49.4
2024-01-10T15:11:56.293Z,49.4
2024-01-10T15:13:12.319Z,49.6
2024-01-10T15:14:28.408Z,49.8
2024-01-10T15:15:44.273Z,50
2024-01-10T15:17:00.432Z,50.4
2024-01-10T15:18:16.533Z,50.6
2024-01-10T15:19:32.367Z,50.7
2024-01-10T15:20:48.281Z,50.7
2024-01-10T15:22:04.486Z,50.5
2024-01-10T15:23:20.485Z,50.5
2024-01-10T15:24:36.358Z,50.5
2024-01-10T15:25:52.461Z,50.8
2024-01-10T15:27:08.417Z,50.6
2024-01-10T15:28:24.358Z,50.6
2024-01-10T15:29:40.636Z,50.7
2024-01-10T15:30:56.395Z,50.8
2024-01-10T15:32:12.579Z,50.9
2024-01-10T15:33:28.496Z,50.9
2024-01-10T15:34:44.470Z,51
2024-01-10T15:36:00.354Z,51
2024-01-10T15:37:16.389Z,51.2
2024-01-10T15:38:32.647Z,51.1
2024-01-10T15:39:48.557Z,51.5
2024-01-10T15:41:04.452Z,52.1
2024-01-10T15:42:20.446Z,52.9
2024-01-10T15:43:36.567Z,53.7
2024-01-10T15:44:52.453Z,54.5
2024-01-10T15:46:08.454Z,55
2024-01-10T15:47:24.393Z,55.7
2024-01-10T15:48:40.481Z,55.9
2024-01-10T15:49:56.339Z,55.5
2024-01-10T15:51:12.443Z,55
2024-01-10T15:52:28.401Z,54.7
2024-01-10T15:53:44.448Z,54.5
2024-01-10T15:55:00.427Z,54.4
2024-01-10T15:56:16.575Z,54.3
2024-01-10T15:57:32.530Z,54
2024-01-10T15:58:48.514Z,53.7
2024-01-10T16:00:04.388Z,53.4
2024-01-10T16:01:20.708Z,53.4
2024-01-10T16:02:36.340Z,53.3
2024-01-10T16:03:52.468Z,53.3
2024-01-10T16:05:08.546Z,53.3
2024-01-10T16:06:24.508Z,53.3
2024-01-10T16:07:40.428Z,53.4
2024-01-10T16:08:56.464Z,53.4
2024-01-10T16:10:12.372Z,53.5
2024-01-10T16:11:28.588Z,53.7
2024-01-10T16:12:44.371Z,53.9
2024-01-10T16:14:00.495Z,54.1
2024-01-10T16:15:16.456Z,53.8
2024-01-10T16:16:32.411Z,53.6
2024-01-10T16:17:48.427Z,54.1
2024-01-10T16:19:04.411Z,54.4
2024-01-10T16:20:20.489Z,54.7
2024-01-10T16:21:36.441Z,55
2024-01-10T16:22:52.581Z,55
2024-01-10T16:24:08.497Z,55.5
2024-01-10T16:25:24.396Z,55.6
2024-01-10T16:26:40.601Z,56
2024-01-10T16:27:56.399Z,56.3
2024-01-10T16:29:12.496Z,56.6
2024-01-10T16:30:28.439Z,57
2024-01-10T16:31:44.647Z,57.4
2024-01-10T16:33:00.558Z,57.5
2024-01-10T16:34:16.485Z,58.2
2024-01-10T16:35:32.544Z,58.6
2024-01-10T16:36:48.415Z,59.1
2024-01-10T16:38:04.524Z,59.6
2024-01-10T16:39:20.456Z,59.8
2024-01-10T16:40:36.457Z,59.8
2024-01-10T16:41:52.857Z,59.6
2024-01-10T16:43:09.405Z,58.9
2024-01-10T16:44:25.516Z,58.5
2024-01-10T16:45:41.953Z,58.1
2024-01-10T16:46:59.037Z,57.8
2024-01-10T16:48:17.317Z,57.4
2024-01-10T16:49:33.609Z,57
2024-01-10T16:50:49.560Z,56.3
2024-01-10T16:52:05.757Z,56.2
2024-01-10T16:53:23.091Z,55.5
2024-01-10T16:54:40.466Z,55.1
2024-01-10T16:55:59.294Z,55
2024-01-10T16:57:15.542Z,55
2024-01-10T16:58:31.551Z,54.8
2024-01-10T16:59:47.788Z,54.6